Time;durP1;ratioP1;P1;durP2;ratioP2;P2;SDS_P1;SDS_P2;PMS_P1;PMS_P2;Temp;Humidity;BMP_temperature;BMP_pressure;BME280_temperature;BME280_humidity;BME280_pressure;Samples;Min_cycle;Max_cycle;Signal;HPM_P1;HPM_P2
2023/10/19 00:00:45;;;;;;;11.20;6.75;;;;;;;;;;5087241;28;20074;-84
2023/10/19 00:03:11;;;;;;;14.82;8.45;;;;;;;;;;5084114;28;20056;-84
2023/10/19 00:05:37;;;;;;;11.45;7.55;;;;;;;;;;5090300;28;20028;-84
2023/10/19 00:08:14;;;;;;;13.15;7.32;;;;;;;;;;5087672;28;20032;-84
2023/10/19 00:10:42;;;;;;;10.93;7.25;;;;;;;;;;5060952;28;20533;-85
2023/10/19 00:13:08;;;;;;;12.30;7.80;;;;;;;;;;5089155;28;20043;-85
2023/10/19 00:15:37;;;;;;;11.50;7.07;;;;;;;;;;5087283;28;20033;-84
2023/10/19 00:20:52;;;;;;;11.27;6.95;;;;;;;;;;5089291;28;20047;-85
2023/10/19 00:23:28;;;;;;;10.60;6.60;;;;;;;;;;5085226;28;20458;-84
2023/10/19 00:25:54;;;;;;;12.88;7.45;;;;;;;;;;5088739;28;20066;-84
2023/10/19 00:28:20;;;;;;;14.13;7.50;;;;;;;;;;5053519;28;20033;-83
2023/10/19 00:30:48;;;;;;;11.77;6.40;;;;;;;;;;5075458;28;20039;-83
2023/10/19 00:33:20;;;;;;;10.10;6.47;;;;;;;;;;5066813;28;20028;-83
2023/10/19 00:38:39;;;;;;;13.05;6.90;;;;;;;;;;5086108;28;20037;-84
2023/10/19 00:43:42;;;;;;;12.77;7.20;;;;;;;;;;5085112;28;20024;-84
2023/10/19 00:48:53;;;;;;;10.85;6.35;;;;;;;;;;5084390;28;20029;-84
2023/10/19 00:53:55;;;;;;;11.10;6.60;;;;;;;;;;5086654;28;20157;-84
2023/10/19 00:56:23;;;;;;;11.07;7.30;;;;;;;;;;5082873;28;20095;-85
2023/10/19 00:58:53;;;;;;;12.57;6.70;;;;;;;;;;5072180;28;20048;-84
2023/10/19 01:01:24;;;;;;;11.82;6.30;;;;;;;;;;5072547;28;20055;-85
2023/10/19 01:03:52;;;;;;;12.88;7.20;;;;;;;;;;5082556;28;20051;-83
2023/10/19 01:06:19;;;;;;;11.40;6.60;;;;;;;;;;5073771;28;20102;-83
2023/10/19 01:08:45;;;;;;;13.00;7.35;;;;;;;;;;5071759;28;20077;-83
2023/10/19 01:11:11;;;;;;;11.57;6.82;;;;;;;;;;5052587;28;20046;-86
2023/10/19 01:13:38;;;;;;;9.85;6.13;;;;;;;;;;5086604;28;20028;-84
2023/10/19 01:16:04;;;;;;;10.68;6.13;;;;;;;;;;5066273;28;20028;-84
2023/10/19 01:18:32;;;;;;;9.25;6.15;;;;;;;;;;5093222;28;20056;-84
2023/10/19 01:21:02;;;;;;;10.18;5.53;;;;;;;;;;5076623;28;20047;-84
2023/10/19 01:23:27;;;;;;;9.65;5.70;;;;;;;;;;5073005;28;20488;-84
2023/10/19 01:26:07;;;;;;;10.90;6.32;;;;;;;;;;5065095;28;20032;-85
2023/10/19 01:31:22;;;;;;;10.25;6.20;;;;;;;;;;5065512;28;20092;-84
2023/10/19 01:33:47;;;;;;;9.40;6.35;;;;;;;;;;5066666;28;20032;-84
2023/10/19 01:38:47;;;;;;;12.50;6.05;;;;;;;;;;5076178;28;20031;-83
2023/10/19 01:41:13;;;;;;;12.23;6.53;;;;;;;;;;5069496;28;20029;-84
2023/10/19 01:43:40;;;;;;;11.10;6.20;;;;;;;;;;5075890;28;20039;-83
2023/10/19 01:46:11;;;;;;;13.82;6.88;;;;;;;;;;5071197;28;20024;-84
2023/10/19 01:48:38;;;;;;;11.45;5.25;;;;;;;;;;5087082;28;20503;-83
2023/10/19 01:51:04;;;;;;;10.43;6.32;;;;;;;;;;5071305;28;20081;-84
2023/10/19 01:53:31;;;;;;;12.15;6.85;;;;;;;;;;5086106;28;20111;-84
2023/10/19 01:55:59;;;;;;;13.55;7.15;;;;;;;;;;5085434;28;20062;-84
2023/10/19 01:58:25;;;;;;;11.70;6.00;;;;;;;;;;5067162;28;20020;-83
2023/10/19 02:00:54;;;;;;;11.65;6.57;;;;;;;;;;5075255;28;20606;-83
2023/10/19 02:03:20;;;;;;;11.25;6.60;;;;;;;;;;5071072;28;20509;-85
2023/10/19 02:05:49;;;;;;;11.70;6.65;;;;;;;;;;5089426;28;20020;-83
2023/10/19 02:08:16;;;;;;;11.10;6.68;;;;;;;;;;5085287;28;20020;-83
2023/10/19 02:10:45;;;;;;;11.13;6.00;;;;;;;;;;5089908;28;20035;-84
2023/10/19 02:13:10;;;;;;;13.02;6.57;;;;;;;;;;5065486;28;20025;-84
2023/10/19 02:15:37;;;;;;;8.68;5.43;;;;;;;;;;5091481;28;20027;-83
2023/10/19 02:18:03;;;;;;;8.80;5.55;;;;;;;;;;5090201;28;20020;-83
2023/10/19 02:20:29;;;;;;;9.65;5.60;;;;;;;;;;5070137;28;20039;-84
2023/10/19 02:22:57;;;;;;;10.00;5.82;;;;;;;;;;5068898;28;20036;-84
2023/10/19 02:25:24;;;;;;;8.75;5.97;;;;;;;;;;5083799;28;20090;-84
2023/10/19 02:27:49;;;;;;;8.23;4.70;;;;;;;;;;5070377;28;20024;-83
2023/10/19 02:30:17;;;;;;;9.05;5.40;;;;;;;;;;5090066;28;20519;-84
2023/10/19 02:32:44;;;;;;;9.88;5.85;;;;;;;;;;5092222;28;20027;-84
2023/10/19 02:35:09;;;;;;;10.77;5.53;;;;;;;;;;5085946;28;20025;-84
2023/10/19 02:37:34;;;;;;;12.43;6.40;;;;;;;;;;5086522;28;20058;-84
2023/10/19 02:40:00;;;;;;;7.90;4.63;;;;;;;;;;5067677;28;20020;-84
2023/10/19 02:42:25;;;;;;;9.35;5.55;;;;;;;;;;5091427;28;20496;-85
2023/10/19 02:44:51;;;;;;;11.50;6.32;;;;;;;;;;5071125;28;20059;-84
2023/10/19 02:47:17;;;;;;;11.60;6.63;;;;;;;;;;5071133;28;20031;-84
2023/10/19 02:49:44;;;;;;;12.98;6.97;;;;;;;;;;5075154;28;20020;-85
2023/10/19 02:52:12;;;;;;;8.30;5.32;;;;;;;;;;5082981;28;20117;-84
2023/10/19 02:54:37;;;;;;;10.30;5.78;;;;;;;;;;5070468;28;20024;-85
2023/10/19 02:57:07;;;;;;;9.60;6.15;;;;;;;;;;5091885;28;20040;-84
2023/10/19 02:59:32;;;;;;;10.32;6.10;;;;;;;;;;5073537;28;20032;-84
2023/10/19 03:02:18;;;;;;;9.90;6.50;;;;;;;;;;5087490;28;20412;-84
2023/10/19 03:04:45;;;;;;;9.07;5.97;;;;;;;;;;5074048;28;20020;-84
2023/10/19 03:07:13;;;;;;;11.57;6.45;;;;;;;;;;5050449;28;20031;-85
2023/10/19 03:09:54;;;;;;;10.95;6.78;;;;;;;;;;5071131;28;20127;-84
2023/10/19 03:12:20;;;;;;;11.13;6.85;;;;;;;;;;5068459;28;20125;-84
2023/10/19 03:14:47;;;;;;;12.32;6.45;;;;;;;;;;5074312;28;20020;-84
2023/10/19 03:17:13;;;;;;;10.85;6.45;;;;;;;;;;5069735;28;20052;-86
2023/10/19 03:19:38;;;;;;;9.10;6.38;;;;;;;;;;5088378;28;20056;-85
2023/10/19 03:22:06;;;;;;;8.75;5.82;;;;;;;;;;5066659;28;20048;-83
2023/10/19 03:24:40;;;;;;;8.65;5.90;;;;;;;;;;5061631;28;20025;-84
2023/10/19 03:27:39;;;;;;;11.48;5.78;;;;;;;;;;5081250;28;20110;-83
2023/10/19 03:29:59;;;;;;;11.27;6.43;;;;;;;;;;5076984;28;20044;-84
2023/10/19 03:32:35;;;;;;;10.43;5.65;;;;;;;;;;5065574;28;20123;-84
2023/10/19 03:35:01;;;;;;;13.02;6.60;;;;;;;;;;5048667;28;20017;-84
2023/10/19 03:37:29;;;;;;;9.20;6.72;;;;;;;;;;5067879;28;20031;-86
2023/10/19 03:39:58;;;;;;;12.43;6.88;;;;;;;;;;5070859;28;20028;-84
2023/10/19 03:42:32;;;;;;;9.95;6.22;;;;;;;;;;5068439;28;20024;-83
2023/10/19 03:44:57;;;;;;;12.30;6.47;;;;;;;;;;5083813;28;20035;-84
2023/10/19 03:47:26;;;;;;;11.52;7.57;;;;;;;;;;5065095;28;20032;-85
2023/10/19 03:49:51;;;;;;;11.55;6.25;;;;;;;;;;5066235;28;20032;-85
2023/10/19 03:54:42;;;;;;;10.98;6.25;;;;;;;;;;5071304;28;20020;-85
2023/10/19 03:57:11;;;;;;;8.80;6.20;;;;;;;;;;5067920;28;20016;-86
2023/10/19 03:59:40;;;;;;;9.25;5.95;;;;;;;;;;5056447;28;20407;-86
2023/10/19 04:02:10;;;;;;;9.95;6.43;;;;;;;;;;5070930;28;20507;-86
2023/10/19 04:04:36;;;;;;;11.23;7.15;;;;;;;;;;5065182;28;20052;-86
2023/10/19 04:07:10;;;;;;;12.20;6.40;;;;;;;;;;5070068;28;20392;-86
2023/10/19 04:09:40;;;;;;;11.25;7.35;;;;;;;;;;5081986;28;20078;-85
2023/10/19 04:12:06;;;;;;;9.50;6.30;;;;;;;;;;5146660;22;20051;-78
2023/10/19 04:14:31;;;;;;;11.93;7.07;;;;;;;;;;5100495;28;20032;-77
2023/10/19 04:16:56;;;;;;;11.10;6.90;;;;;;;;;;5081618;28;20137;-76
2023/10/19 04:19:21;;;;;;;12.13;6.75;;;;;;;;;;5101906;28;20376;-77
2023/10/19 04:21:47;;;;;;;14.05;7.00;;;;;;;;;;5099540;28;20020;-78
2023/10/19 04:24:13;;;;;;;10.00;7.00;;;;;;;;;;5097145;28;20041;-77
2023/10/19 04:26:38;;;;;;;12.18;7.30;;;;;;;;;;5100797;28;20035;-76
2023/10/19 04:29:17;;;;;;;12.25;8.20;;;;;;;;;;5104832;28;20088;-77
2023/10/19 04:31:54;;;;;;;11.05;6.28;;;;;;;;;;5077198;28;20493;-75
2023/10/19 04:34:21;;;;;;;10.65;6.32;;;;;;;;;;5096966;28;20483;-76
2023/10/19 04:36:49;;;;;;;11.55;7.72;;;;;;;;;;5103341;28;20492;-77
2023/10/19 04:39:15;;;;;;;11.75;7.47;;;;;;;;;;5103608;28;20034;-74
2023/10/19 04:41:40;;;;;;;10.15;7.63;;;;;;;;;;5104225;28;20012;-76
2023/10/19 04:44:08;;;;;;;13.27;8.70;;;;;;;;;;5086783;28;20032;-76
2023/10/19 04:46:33;;;;;;;11.70;7.32;;;;;;;;;;5102107;28;20043;-75
2023/10/19 04:48:59;;;;;;;11.05;7.40;;;;;;;;;;5094873;28;20032;-76
2023/10/19 04:51:24;;;;;;;12.32;7.47;;;;;;;;;;5083329;28;20043;-77
2023/10/19 04:53:49;;;;;;;11.05;7.40;;;;;;;;;;5101732;28;20023;-76
2023/10/19 04:56:15;;;;;;;13.25;8.45;;;;;;;;;;5098892;28;20484;-74
2023/10/19 04:58:40;;;;;;;12.07;7.75;;;;;;;;;;5102023;28;20020;-77
2023/10/19 05:01:06;;;;;;;10.85;7.38;;;;;;;;;;5097848;28;20065;-76
2023/10/19 05:03:32;;;;;;;11.93;7.78;;;;;;;;;;5087867;28;20043;-77
2023/10/19 05:05:57;;;;;;;11.80;7.35;;;;;;;;;;5097964;28;20028;-76
2023/10/19 05:08:24;;;;;;;15.90;11.07;;;;;;;;;;5097303;28;20107;-77
2023/10/19 05:10:51;;;;;;;20.95;14.98;;;;;;;;;;5079958;28;20028;-77
2023/10/19 05:13:16;;;;;;;14.77;9.95;;;;;;;;;;5101024;28;20103;-77
2023/10/19 05:15:42;;;;;;;14.38;8.55;;;;;;;;;;5095548;28;20097;-77
2023/10/19 05:18:08;;;;;;;14.90;9.07;;;;;;;;;;5098477;28;20437;-76
2023/10/19 05:20:33;;;;;;;15.18;8.25;;;;;;;;;;5096518;28;20039;-77
2023/10/19 05:23:00;;;;;;;12.55;8.68;;;;;;;;;;5102872;28;20023;-77
2023/10/19 05:25:25;;;;;;;15.50;9.90;;;;;;;;;;5101877;28;20032;-77
2023/10/19 05:27:50;;;;;;;11.40;8.07;;;;;;;;;;5094491;28;20085;-77
2023/10/19 05:30:16;;;;;;;15.38;9.02;;;;;;;;;;5097128;28;20024;-76
2023/10/19 05:32:41;;;;;;;11.23;8.43;;;;;;;;;;5094191;28;20025;-76
2023/10/19 05:35:06;;;;;;;14.38;9.48;;;;;;;;;;5101411;28;20030;-76
2023/10/19 05:37:31;;;;;;;13.77;10.60;;;;;;;;;;5100121;28;20100;-77
2023/10/19 05:39:57;;;;;;;16.58;11.52;;;;;;;;;;5079001;28;20107;-77
2023/10/19 05:42:22;;;;;;;15.13;10.00;;;;;;;;;;5076718;28;20084;-77
2023/10/19 05:44:48;;;;;;;16.48;9.65;;;;;;;;;;5082552;28;20069;-76
2023/10/19 05:47:13;;;;;;;11.20;8.55;;;;;;;;;;5080671;28;20543;-77
2023/10/19 05:49:38;;;;;;;14.35;8.57;;;;;;;;;;5077806;28;20013;-75
2023/10/19 05:52:03;;;;;;;14.43;9.95;;;;;;;;;;5097868;28;20423;-76
2023/10/19 05:54:29;;;;;;;13.15;9.32;;;;;;;;;;5075841;28;20078;-76
2023/10/19 05:56:54;;;;;;;13.25;9.55;;;;;;;;;;5084913;28;20097;-77
2023/10/19 05:59:19;;;;;;;14.20;9.25;;;;;;;;;;5095066;28;20020;-77
2023/10/19 06:01:46;;;;;;;13.23;9.43;;;;;;;;;;5088420;22;20075;-77
2023/10/19 06:04:12;;;;;;;17.73;10.20;;;;;;;;;;5054360;28;20103;-77
2023/10/19 06:06:38;;;;;;;15.10;9.45;;;;;;;;;;5062450;28;20047;-77
2023/10/19 06:09:04;;;;;;;13.65;10.43;;;;;;;;;;5072505;28;20037;-78
2023/10/19 06:11:32;;;;;;;12.82;8.98;;;;;;;;;;5072898;28;20040;-77
2023/10/19 06:13:57;;;;;;;12.63;9.05;;;;;;;;;;5073605;28;20062;-77
2023/10/19 06:16:23;;;;;;;15.43;10.43;;;;;;;;;;5049960;28;20118;-76
2023/10/19 06:18:49;;;;;;;21.40;10.35;;;;;;;;;;5074631;28;20542;-77
2023/10/19 06:21:17;;;;;;;15.52;11.25;;;;;;;;;;5071329;28;20028;-77
2023/10/19 06:23:42;;;;;;;15.52;10.82;;;;;;;;;;5063766;28;20032;-77
2023/10/19 06:26:09;;;;;;;15.50;10.23;;;;;;;;;;5064972;28;20485;-77
2023/10/19 06:28:38;;;;;;;17.40;11.60;;;;;;;;;;5069818;28;20461;-77
2023/10/19 06:31:04;;;;;;;14.85;11.02;;;;;;;;;;5058365;28;20036;-77
2023/10/19 06:33:32;;;;;;;15.80;10.82;;;;;;;;;;5071623;28;20488;-77
2023/10/19 06:35:59;;;;;;;14.90;10.82;;;;;;;;;;5062575;28;20024;-77
2023/10/19 06:38:24;;;;;;;15.38;11.70;;;;;;;;;;5060642;28;20481;-77
2023/10/19 06:40:49;;;;;;;15.50;11.45;;;;;;;;;;5071945;28;20021;-77
2023/10/19 06:43:15;;;;;;;15.20;11.63;;;;;;;;;;5071540;28;20032;-76
2023/10/19 06:45:40;;;;;;;14.40;11.52;;;;;;;;;;5071800;28;20020;-78
2023/10/19 06:48:06;;;;;;;16.13;12.13;;;;;;;;;;5071764;28;20028;-77
2023/10/19 06:50:31;;;;;;;17.85;11.93;;;;;;;;;;5071575;28;20043;-77
2023/10/19 06:52:57;;;;;;;16.02;11.88;;;;;;;;;;5071232;28;20399;-76
2023/10/19 06:55:25;;;;;;;14.95;12.05;;;;;;;;;;5067565;28;20033;-77
2023/10/19 06:57:55;;;;;;;17.42;11.95;;;;;;;;;;5071159;28;20020;-77
2023/10/19 07:00:21;;;;;;;17.85;13.18;;;;;;;;;;5071505;28;20028;-78
2023/10/19 07:02:47;;;;;;;16.60;12.85;;;;;;;;;;5071516;28;20051;-77
2023/10/19 07:05:13;;;;;;;15.00;12.00;;;;;;;;;;5071375;28;20024;-77
2023/10/19 07:07:40;;;;;;;14.90;11.60;;;;;;;;;;5045151;28;20502;-78
2023/10/19 07:10:08;;;;;;;14.77;11.40;;;;;;;;;;5059829;28;20032;-77
2023/10/19 07:12:33;;;;;;;14.13;10.88;;;;;;;;;;5071017;28;20048;-76
2023/10/19 07:15:00;;;;;;;13.75;11.10;;;;;;;;;;5061479;28;20016;-77
2023/10/19 07:17:27;;;;;;;15.45;11.73;;;;;;;;;;5071231;28;20024;-77
2023/10/19 07:19:52;;;;;;;19.73;12.73;;;;;;;;;;5071424;28;20024;-77
2023/10/19 07:22:22;;;;;;;14.43;11.10;;;;;;;;;;5070963;28;20036;-75
2023/10/19 07:24:47;;;;;;;14.50;11.23;;;;;;;;;;5056814;28;20114;-76
2023/10/19 07:27:18;;;;;;;15.90;11.35;;;;;;;;;;5071155;28;20045;-77
2023/10/19 07:29:43;;;;;;;12.50;9.90;;;;;;;;;;5071066;28;20033;-77
2023/10/19 07:32:11;;;;;;;13.80;10.45;;;;;;;;;;5070558;28;20078;-77
2023/10/19 07:34:36;;;;;;;13.70;11.45;;;;;;;;;;5070793;28;20485;-77
2023/10/19 07:37:03;;;;;;;12.85;10.40;;;;;;;;;;5071014;28;20031;-77
2023/10/19 07:39:29;;;;;;;16.63;10.60;;;;;;;;;;5070586;28;20032;-77
2023/10/19 07:41:55;;;;;;;13.63;10.98;;;;;;;;;;5067954;28;20119;-75
2023/10/19 07:44:20;;;;;;;42.75;13.30;;;;;;;;;;5070159;28;20460;-77
2023/10/19 07:46:46;;;;;;;17.73;11.52;;;;;;;;;;5060830;28;20408;-77
2023/10/19 07:49:14;;;;;;;15.23;12.45;;;;;;;;;;5057316;28;20107;-78
2023/10/19 07:51:41;;;;;;;20.15;15.15;;;;;;;;;;5070543;28;20032;-77
2023/10/19 07:54:07;;;;;;;17.02;13.93;;;;;;;;;;5066487;28;20029;-78
2023/10/19 07:56:33;;;;;;;18.92;15.32;;;;;;;;;;5062294;28;20033;-77
2023/10/19 07:58:59;;;;;;;17.00;14.18;;;;;;;;;;5070336;28;20026;-77
2023/10/19 08:01:24;;;;;;;15.82;12.70;;;;;;;;;;5066928;28;20055;-77
2023/10/19 08:03:49;;;;;;;19.73;13.30;;;;;;;;;;5050089;28;20099;-77
2023/10/19 08:06:14;;;;;;;18.67;13.93;;;;;;;;;;5068280;28;20230;-77
2023/10/19 08:08:41;;;;;;;18.38;13.60;;;;;;;;;;5070698;28;20107;-76
2023/10/19 08:11:08;;;;;;;16.00;12.10;;;;;;;;;;5053512;28;20032;-77
2023/10/19 08:13:33;;;;;;;17.17;13.23;;;;;;;;;;5073921;28;20032;-77
2023/10/19 08:15:59;;;;;;;16.85;12.98;;;;;;;;;;5073350;28;20020;-77
2023/10/19 08:18:24;;;;;;;23.23;16.10;;;;;;;;;;5064246;28;20507;-76
2023/10/19 08:20:50;;;;;;;22.08;18.80;;;;;;;;;;5074359;28;20024;-77
2023/10/19 08:23:18;;;;;;;18.35;15.38;;;;;;;;;;5074113;28;20446;-77
2023/10/19 08:25:46;;;;;;;16.25;12.82;;;;;;;;;;5063874;28;20024;-77
2023/10/19 08:28:11;;;;;;;18.50;14.43;;;;;;;;;;5074369;28;20029;-77
2023/10/19 08:30:37;;;;;;;16.40;12.88;;;;;;;;;;5065127;28;20029;-77
2023/10/19 08:33:03;;;;;;;17.52;13.57;;;;;;;;;;5073996;28;20040;-76
2023/10/19 08:35:28;;;;;;;16.08;13.20;;;;;;;;;;5074478;28;20523;-76
2023/10/19 08:37:54;;;;;;;19.58;13.77;;;;;;;;;;5074355;28;20021;-78
2023/10/19 08:40:21;;;;;;;16.10;12.68;;;;;;;;;;5070674;28;20028;-77
2023/10/19 08:42:46;;;;;;;16.90;12.93;;;;;;;;;;5052433;28;20511;-77
2023/10/19 08:45:12;;;;;;;16.23;11.77;;;;;;;;;;5074109;28;20028;-77
2023/10/19 08:47:56;;;;;;;18.40;14.18;;;;;;;;;;5074274;28;20029;-77
2023/10/19 08:50:23;;;;;;;19.38;14.05;;;;;;;;;;5069336;28;20591;-77
2023/10/19 08:52:50;;;;;;;16.30;12.15;;;;;;;;;;5070882;28;20033;-77
2023/10/19 08:55:15;;;;;;;18.45;12.75;;;;;;;;;;5069486;28;20496;-76
2023/10/19 08:57:41;;;;;;;17.33;12.77;;;;;;;;;;5061769;28;20047;-76
2023/10/19 09:00:06;;;;;;;17.55;13.02;;;;;;;;;;5074038;28;20369;-78
2023/10/19 09:02:33;;;;;;;15.80;12.60;;;;;;;;;;5073573;28;20078;-77
2023/10/19 09:04:59;;;;;;;15.13;11.82;;;;;;;;;;5069956;28;20111;-77
2023/10/19 09:07:30;;;;;;;14.98;12.38;;;;;;;;;;5066422;28;20500;-76
2023/10/19 09:09:55;;;;;;;17.23;13.43;;;;;;;;;;5064133;28;20511;-77
2023/10/19 09:12:21;;;;;;;15.68;12.63;;;;;;;;;;5061997;28;20036;-76
2023/10/19 09:14:46;;;;;;;16.48;12.18;;;;;;;;;;5072323;28;20366;-77
2023/10/19 09:17:13;;;;;;;16.77;12.75;;;;;;;;;;5073825;28;20040;-78
2023/10/19 09:19:48;;;;;;;16.15;12.90;;;;;;;;;;5055623;28;20032;-77
2023/10/19 09:22:18;;;;;;;14.90;11.77;;;;;;;;;;5072959;28;20048;-77
2023/10/19 09:24:46;;;;;;;17.80;12.32;;;;;;;;;;5069625;28;20063;-77
2023/10/19 09:27:12;;;;;;;21.15;12.13;;;;;;;;;;5040671;28;20032;-77
2023/10/19 09:29:38;;;;;;;16.42;11.57;;;;;;;;;;5067278;28;20388;-78
2023/10/19 09:32:05;;;;;;;15.18;12.15;;;;;;;;;;5072349;28;20473;-77
2023/10/19 09:34:33;;;;;;;13.88;11.50;;;;;;;;;;5073386;28;20029;-77
2023/10/19 09:37:00;;;;;;;14.80;11.52;;;;;;;;;;5065258;28;20493;-77
2023/10/19 09:39:26;;;;;;;13.95;11.00;;;;;;;;;;5055709;28;20492;-77
2023/10/19 09:41:52;;;;;;;16.63;12.70;;;;;;;;;;5067902;28;20021;-77
2023/10/19 09:44:21;;;;;;;15.38;12.10;;;;;;;;;;5056089;28;20032;-77
2023/10/19 09:46:48;;;;;;;17.30;12.30;;;;;;;;;;5069568;28;20029;-77
2023/10/19 09:49:13;;;;;;;17.42;12.13;;;;;;;;;;5064609;28;20104;-76
2023/10/19 09:51:39;;;;;;;16.50;12.38;;;;;;;;;;5073152;28;20056;-77
2023/10/19 09:54:14;;;;;;;14.15;12.00;;;;;;;;;;5073185;28;20105;-77
2023/10/19 09:56:41;;;;;;;13.80;10.88;;;;;;;;;;5054417;28;20557;-77
2023/10/19 09:59:11;;;;;;;15.60;11.43;;;;;;;;;;5073153;28;20052;-77
2023/10/19 10:01:55;;;;;;;19.30;15.15;;;;;;;;;;5060647;28;20086;-77
2023/10/19 10:04:30;;;;;;;19.70;15.95;;;;;;;;;;5071970;28;20035;-78
2023/10/19 10:06:55;;;;;;;15.05;12.00;;;;;;;;;;5063339;28;20029;-76
2023/10/19 10:09:23;;;;;;;15.05;12.70;;;;;;;;;;5068412;28;20059;-74
2023/10/19 10:11:52;;;;;;;14.43;10.00;;;;;;;;;;5067848;28;20032;-78
2023/10/19 10:14:24;;;;;;;12.77;9.73;;;;;;;;;;5071706;28;20029;-78
2023/10/19 10:17:00;;;;;;;13.63;10.60;;;;;;;;;;5047801;28;20036;-78
2023/10/19 10:19:25;;;;;;;14.75;11.68;;;;;;;;;;5051993;28;20493;-78
2023/10/19 10:22:14;;;;;;;15.95;11.18;;;;;;;;;;5052971;28;20023;-78
2023/10/19 10:24:43;;;;;;;12.05;10.05;;;;;;;;;;5063166;28;20447;-79
2023/10/19 10:27:09;;;;;;;14.43;12.02;;;;;;;;;;5073713;28;20017;-78
2023/10/19 10:29:35;;;;;;;17.33;13.25;;;;;;;;;;5071354;28;20553;-78
2023/10/19 10:32:01;;;;;;;16.90;12.65;;;;;;;;;;5073454;28;20021;-77
2023/10/19 10:34:40;;;;;;;11.45;9.70;;;;;;;;;;5063758;28;20033;-77
2023/10/19 10:37:07;;;;;;;12.93;10.68;;;;;;;;;;5048000;28;20377;-78
2023/10/19 10:39:35;;;;;;;15.20;12.70;;;;;;;;;;5056942;28;20025;-77
2023/10/19 10:42:05;;;;;;;17.88;14.40;;;;;;;;;;5065277;28;20032;-77
2023/10/19 10:44:40;;;;;;;19.88;16.02;;;;;;;;;;5065924;28;20029;-77
2023/10/19 10:47:08;;;;;;;15.45;13.50;;;;;;;;;;5065868;28;20029;-78
2023/10/19 10:49:33;;;;;;;12.23;10.20;;;;;;;;;;5067307;28;20032;-78
2023/10/19 10:51:58;;;;;;;12.70;10.20;;;;;;;;;;5064878;28;20485;-78
2023/10/19 10:54:23;;;;;;;11.65;8.80;;;;;;;;;;5050774;28;20520;-77
2023/10/19 10:56:49;;;;;;;12.02;10.05;;;;;;;;;;5071512;28;20033;-77
2023/10/19 10:59:14;;;;;;;11.48;10.05;;;;;;;;;;5071474;28;20036;-79
2023/10/19 11:01:41;;;;;;;15.68;11.95;;;;;;;;;;5066567;28;20551;-79
2023/10/19 11:04:10;;;;;;;21.35;14.52;;;;;;;;;;5071717;28;20112;-78
2023/10/19 11:06:48;;;;;;;19.73;16.25;;;;;;;;;;5069921;28;20558;-78
2023/10/19 11:09:18;;;;;;;11.95;10.15;;;;;;;;;;5048444;28;20036;-77
2023/10/19 11:11:43;;;;;;;16.45;14.02;;;;;;;;;;5069078;28;20505;-79
2023/10/19 11:14:11;;;;;;;14.52;10.40;;;;;;;;;;5070794;28;20050;-78
2023/10/19 11:16:37;;;;;;;12.98;9.00;;;;;;;;;;5061440;28;20484;-78
2023/10/19 11:19:02;;;;;;;9.15;8.00;;;;;;;;;;5070196;28;20105;-78
2023/10/19 11:21:28;;;;;;;10.13;7.75;;;;;;;;;;5068407;28;20488;-78
2023/10/19 11:23:53;;;;;;;11.30;8.18;;;;;;;;;;5068932;28;20031;-78
2023/10/19 11:26:22;;;;;;;10.43;8.43;;;;;;;;;;5072658;28;20028;-78
2023/10/19 11:28:56;;;;;;;10.75;8.85;;;;;;;;;;5042525;28;20040;-78
2023/10/19 11:31:23;;;;;;;10.82;7.93;;;;;;;;;;5069370;28;20056;-78
2023/10/19 11:33:49;;;;;;;10.93;8.73;;;;;;;;;;5072222;28;20035;-78
2023/10/19 11:36:15;;;;;;;13.88;9.40;;;;;;;;;;5070625;28;20024;-78
2023/10/19 11:38:41;;;;;;;10.98;8.63;;;;;;;;;;5060468;28;20074;-78
2023/10/19 11:41:07;;;;;;;12.38;8.70;;;;;;;;;;5059720;28;20400;-78
2023/10/19 11:43:34;;;;;;;11.23;8.60;;;;;;;;;;5066880;28;20032;-78
2023/10/19 11:45:59;;;;;;;10.50;7.93;;;;;;;;;;5073834;28;20039;-78
2023/10/19 11:48:25;;;;;;;9.38;7.72;;;;;;;;;;5076363;28;20040;-78
2023/10/19 11:50:50;;;;;;;9.40;7.63;;;;;;;;;;5058635;28;20025;-78
2023/10/19 11:53:15;;;;;;;10.70;8.32;;;;;;;;;;5058366;28;20086;-78
2023/10/19 11:55:41;;;;;;;9.10;7.55;;;;;;;;;;5076196;28;20400;-78
2023/10/19 11:58:11;;;;;;;9.90;7.57;;;;;;;;;;5062612;28;20036;-78
2023/10/19 12:00:37;;;;;;;8.60;6.65;;;;;;;;;;5074185;28;20082;-78
2023/10/19 12:03:03;;;;;;;8.38;7.13;;;;;;;;;;5074269;28;20032;-79
2023/10/19 12:05:28;;;;;;;10.90;7.45;;;;;;;;;;5050366;28;20036;-78
2023/10/19 12:07:54;;;;;;;12.38;9.30;;;;;;;;;;5074438;28;20032;-78
2023/10/19 12:10:28;;;;;;;11.05;8.07;;;;;;;;;;5074246;28;20036;-78
2023/10/19 12:12:53;;;;;;;8.50;6.38;;;;;;;;;;5049999;28;20428;-79
2023/10/19 12:15:22;;;;;;;9.57;7.35;;;;;;;;;;5073075;28;20019;-78
2023/10/19 12:17:47;;;;;;;8.70;7.30;;;;;;;;;;5057904;28;20032;-79
2023/10/19 12:20:14;;;;;;;9.05;6.55;;;;;;;;;;5066188;28;20076;-78
2023/10/19 12:22:40;;;;;;;8.07;6.75;;;;;;;;;;5049268;28;20055;-78
2023/10/19 12:25:05;;;;;;;10.60;8.07;;;;;;;;;;5065520;28;20070;-78
2023/10/19 12:27:30;;;;;;;14.93;12.07;;;;;;;;;;5075504;28;20020;-78
2023/10/19 12:29:56;;;;;;;10.07;7.43;;;;;;;;;;5073871;28;20481;-78
2023/10/19 12:32:21;;;;;;;8.82;6.57;;;;;;;;;;5049409;28;20037;-78
2023/10/19 12:34:50;;;;;;;7.75;6.43;;;;;;;;;;5046789;28;20025;-78
2023/10/19 12:37:17;;;;;;;9.85;7.00;;;;;;;;;;5073299;28;20036;-78
2023/10/19 12:39:44;;;;;;;9.57;7.05;;;;;;;;;;5034340;28;20037;-78
2023/10/19 12:42:10;;;;;;;11.75;7.15;;;;;;;;;;5075437;28;20027;-78
2023/10/19 12:44:39;;;;;;;12.23;7.72;;;;;;;;;;5075230;28;20492;-78
2023/10/19 12:47:09;;;;;;;10.18;7.10;;;;;;;;;;5074418;28;20036;-78
2023/10/19 12:49:35;;;;;;;9.27;7.32;;;;;;;;;;5073554;28;20040;-78
2023/10/19 12:52:03;;;;;;;8.73;6.85;;;;;;;;;;5046139;28;20033;-78
2023/10/19 12:54:28;;;;;;;8.23;6.70;;;;;;;;;;5046486;28;20037;-78
2023/10/19 12:56:53;;;;;;;13.07;11.38;;;;;;;;;;5056405;28;20067;-78
2023/10/19 12:59:19;;;;;;;15.68;13.48;;;;;;;;;;5074554;28;20025;-78
2023/10/19 13:01:48;;;;;;;11.98;10.13;;;;;;;;;;5057913;28;20048;-78
2023/10/19 13:04:18;;;;;;;11.38;9.93;;;;;;;;;;5067013;28;20036;-78
2023/10/19 13:06:43;;;;;;;12.10;9.90;;;;;;;;;;5074495;28;20493;-78
2023/10/19 13:09:09;;;;;;;10.45;9.15;;;;;;;;;;5074767;28;20077;-78
2023/10/19 13:11:34;;;;;;;10.38;8.75;;;;;;;;;;5040023;28;20123;-78
2023/10/19 13:14:00;;;;;;;10.82;8.15;;;;;;;;;;5060868;28;20036;-78
2023/10/19 13:16:26;;;;;;;10.05;8.23;;;;;;;;;;5054767;28;20024;-78
2023/10/19 13:18:51;;;;;;;10.38;8.13;;;;;;;;;;5072117;28;20461;-78
2023/10/19 13:21:21;;;;;;;10.07;7.97;;;;;;;;;;5070373;28;20025;-78
2023/10/19 13:23:48;;;;;;;10.73;9.07;;;;;;;;;;5071283;28;20033;-78
2023/10/19 13:26:17;;;;;;;9.63;8.18;;;;;;;;;;5070003;28;20024;-78
2023/10/19 13:28:42;;;;;;;9.27;8.20;;;;;;;;;;5069729;28;20036;-78
2023/10/19 13:31:13;;;;;;;11.52;8.90;;;;;;;;;;5074463;28;20058;-78
2023/10/19 13:33:40;;;;;;;11.30;10.10;;;;;;;;;;5056171;28;20116;-78
2023/10/19 13:36:05;;;;;;;10.32;8.80;;;;;;;;;;5072416;28;20048;-77
2023/10/19 13:38:31;;;;;;;11.63;8.95;;;;;;;;;;5071004;28;20047;-78
2023/10/19 13:40:56;;;;;;;9.68;8.32;;;;;;;;;;5070616;28;20021;-78
2023/10/19 13:43:22;;;;;;;11.23;8.73;;;;;;;;;;5072754;28;20484;-78
2023/10/19 13:45:47;;;;;;;10.65;8.30;;;;;;;;;;5074445;28;20492;-78
2023/10/19 13:48:13;;;;;;;10.25;8.70;;;;;;;;;;5058907;28;20043;-78
2023/10/19 13:50:45;;;;;;;14.30;9.75;;;;;;;;;;5065587;28;20033;-78
2023/10/19 13:53:11;;;;;;;11.23;9.20;;;;;;;;;;5051391;28;20028;-78
2023/10/19 13:55:36;;;;;;;13.63;10.52;;;;;;;;;;5069238;28;20493;-78
2023/10/19 13:58:01;;;;;;;13.25;10.57;;;;;;;;;;5070079;28;20115;-78
2023/10/19 14:03:04;;;;;;;10.00;8.82;;;;;;;;;;5066509;28;20047;-77
2023/10/19 14:05:30;;;;;;;9.70;8.23;;;;;;;;;;5064516;28;20037;-78
2023/10/19 14:07:55;;;;;;;9.32;8.18;;;;;;;;;;5046746;28;20033;-78
2023/10/19 14:10:21;;;;;;;10.15;8.02;;;;;;;;;;5047152;28;20424;-77
2023/10/19 14:12:47;;;;;;;11.23;8.80;;;;;;;;;;5067680;28;20036;-78
2023/10/19 14:15:13;;;;;;;13.65;8.88;;;;;;;;;;5064328;28;20025;-78
2023/10/19 14:17:39;;;;;;;11.70;8.88;;;;;;;;;;5031231;28;20021;-78
2023/10/19 14:20:05;;;;;;;9.35;7.88;;;;;;;;;;5047346;28;20628;-78
2023/10/19 14:22:34;;;;;;;10.60;8.82;;;;;;;;;;5066366;28;20433;-78
2023/10/19 14:24:59;;;;;;;10.88;8.70;;;;;;;;;;5064179;28;20036;-77
2023/10/19 14:27:24;;;;;;;12.20;8.88;;;;;;;;;;5068035;28;20531;-78
2023/10/19 14:29:50;;;;;;;10.82;9.10;;;;;;;;;;5068733;28;20023;-78
2023/10/19 14:32:15;;;;;;;11.38;9.43;;;;;;;;;;5065098;28;20021;-78
2023/10/19 14:34:42;;;;;;;10.52;9.15;;;;;;;;;;5065162;28;20504;-78
2023/10/19 14:37:08;;;;;;;11.02;9.82;;;;;;;;;;5045074;28;20017;-78
2023/10/19 14:39:33;;;;;;;13.93;11.02;;;;;;;;;;5045295;28;20032;-78
2023/10/19 14:41:58;;;;;;;11.65;9.98;;;;;;;;;;5063768;28;20031;-78
2023/10/19 14:44:23;;;;;;;15.38;10.75;;;;;;;;;;5072639;28;20028;-78
2023/10/19 14:46:49;;;;;;;12.05;9.77;;;;;;;;;;5063706;28;20031;-78
2023/10/19 14:49:14;;;;;;;12.50;10.60;;;;;;;;;;5052455;28;20111;-78